Main page
METAR-TAF:

METAR-TAF

Airports :

Pamplona, Spain

Pamplona Airport

latitude: 42-46N, longitude: 001-38W, elevation: 459 m

Current weather observation

The report was made 24 minutes ago, at 03:30 UTC
Calm wind
Temperature 6°C
Humidity 93%
Pressure 1023 hPa
Visibility 10 km or more

METAR: LEPP 200330Z AUTO 00000KT 9999 NCD 06/05 Q1023

Time: 05:54 (03:54 UTC)

Forecast

The report was made 1 hour and 54 minutes ago, at 02:00 UTC
Forecast valid from 20 at 03 UTC to 21 at 03 UTC
Wind 7 kt from the North
Visibility 10 km or more
Few clouds at a height of 3500 ft

TAF: LEPP 200200Z 2003/2103 35007KT 9999 FEW035 TX24/2014Z TN09/2006Z

Weather observations and forecasts of more than 4000 airports (METAR and TAF reports).

The available stations are represented by yellow and red dots on the map.

Hover mouse over dot to see the name of the station.

Then click to see weather observations and forecasts.

To change the map : click on the green buttons with a black cross to zoom in, on the green button with a dash to zoom out, or on the green arrows for adjacent maps.


METAR-TAF: